Terminal Aerodrome Forecast
Issued by NWS

Current Version | Previous Version | Graphics & Text | Print | Product List | Glossary On
Versions: 1 2 3 4 5 6 7 8 9 10 11 12 13 14 15 16 17 18 19 20 21 22 23 24 25 26 27 28 29 30 31 32
000
FTUS41 KPBZ 271900 AAA
TAFMGW
TAF AMD
KMGW 271942Z 2720/2818 31005KT P6SM BKN035
     FM272200 30008KT 5SM -SHSN OVC020
     FM280300 30008KT P6SM -SHSN OVC030
     FM281000 28007KT P6SM OVC035=

USA.gov is the U.S. government's official web portal to all federal, state and local government web resources and services.